createdAt,value
2023-05-21T00:00:56.308Z,35.46
2023-05-21T00:01:56.410Z,35.42
2023-05-21T00:02:56.509Z,35.46
2023-05-21T00:03:56.572Z,35.46
2023-05-21T00:04:56.550Z,35.45
2023-05-21T00:05:56.640Z,35.47
2023-05-21T00:06:56.654Z,35.48
2023-05-21T00:07:56.708Z,35.42
2023-05-21T00:08:56.771Z,35.49
2023-05-21T00:09:56.831Z,35.49
2023-05-21T00:10:56.887Z,35.50
2023-05-21T00:11:56.964Z,35.46
2023-05-21T00:12:57.021Z,35.50
2023-05-21T00:13:57.073Z,35.51
2023-05-21T00:14:57.234Z,35.51
2023-05-21T00:15:57.224Z,35.49
2023-05-21T00:16:57.272Z,35.46
2023-05-21T00:17:57.348Z,35.55
2023-05-21T00:18:57.418Z,35.49
2023-05-21T00:19:57.464Z,35.50
2023-05-21T00:20:57.513Z,35.52
2023-05-21T00:21:57.586Z,35.52
2023-05-21T00:22:57.686Z,35.51
2023-05-21T00:23:57.668Z,35.54
2023-05-21T00:24:57.731Z,35.50
2023-05-21T00:25:57.774Z,35.51
2023-05-21T00:26:57.837Z,35.52
2023-05-21T00:27:57.880Z,35.52
2023-05-21T00:28:57.947Z,35.56
2023-05-21T00:29:57.984Z,35.52
2023-05-21T00:30:58.051Z,35.51
2023-05-21T00:31:58.149Z,35.50
2023-05-21T00:32:58.207Z,35.52
2023-05-21T00:33:58.222Z,35.54
2023-05-21T00:34:58.283Z,35.52
2023-05-21T00:35:58.329Z,35.52
2023-05-21T00:36:58.379Z,35.52
2023-05-21T00:37:58.448Z,35.52
2023-05-21T00:38:58.497Z,35.54
2023-05-21T00:39:58.620Z,35.54
2023-05-21T00:40:58.598Z,35.55
2023-05-21T00:41:58.649Z,35.54
2023-05-21T00:42:58.711Z,35.56
2023-05-21T00:43:58.784Z,35.59
2023-05-21T00:44:58.830Z,35.50
2023-05-21T00:45:58.931Z,35.55
2023-05-21T00:46:58.957Z,35.57
2023-05-21T00:47:59.016Z,35.56
2023-05-21T00:48:59.052Z,35.59
2023-05-21T00:49:59.117Z,35.60
2023-05-21T00:50:59.168Z,35.63
2023-05-21T00:51:59.227Z,35.57
2023-05-21T00:52:59.268Z,35.57
2023-05-21T00:53:59.320Z,35.59
2023-05-21T00:54:59.383Z,35.59
2023-05-21T00:55:59.432Z,35.59
2023-05-21T00:56:59.475Z,35.59
2023-05-21T00:57:59.527Z,35.57
2023-05-21T00:58:59.606Z,35.57
2023-05-21T00:59:59.652Z,35.59
2023-05-21T01:00:59.776Z,35.60
2023-05-21T01:01:59.826Z,35.55
2023-05-21T01:02:59.949Z,35.60
2023-05-21T01:03:59.900Z,35.63
2023-05-21T01:04:59.923Z,35.57
2023-05-21T01:06:00.155Z,35.57
2023-05-21T01:07:00.018Z,35.64
2023-05-21T01:08:00.113Z,35.60
2023-05-21T01:09:00.144Z,35.63
2023-05-21T01:10:00.254Z,35.64
2023-05-21T01:11:00.237Z,35.61
2023-05-21T01:12:00.285Z,35.66
2023-05-21T01:13:00.335Z,35.65
2023-05-21T01:14:00.392Z,35.65
2023-05-21T01:15:00.456Z,35.67
2023-05-21T01:16:00.519Z,35.61
2023-05-21T01:17:00.620Z,35.65
2023-05-21T01:18:00.678Z,35.63
2023-05-21T01:19:00.750Z,35.66
2023-05-21T01:20:00.740Z,35.66
2023-05-21T01:21:00.789Z,35.60
2023-05-21T01:22:00.857Z,35.70
2023-05-21T01:23:00.895Z,35.65
2023-05-21T01:24:00.938Z,35.65
2023-05-21T01:25:00.986Z,35.69
2023-05-21T01:26:01.037Z,35.65
2023-05-21T01:27:01.074Z,35.66
2023-05-21T01:28:01.117Z,35.69
2023-05-21T01:29:01.197Z,35.69
2023-05-21T01:30:01.228Z,35.66
2023-05-21T01:31:01.303Z,35.69
2023-05-21T01:32:01.344Z,35.70
2023-05-21T01:33:01.455Z,35.70
2023-05-21T01:34:01.662Z,35.73
2023-05-21T01:35:01.514Z,35.69
2023-05-21T01:36:01.545Z,35.71
2023-05-21T01:37:01.601Z,35.69
2023-05-21T01:38:01.641Z,35.69
2023-05-21T01:39:01.676Z,35.66
2023-05-21T01:40:01.725Z,35.73
2023-05-21T01:41:01.776Z,35.72
2023-05-21T01:42:01.816Z,35.73
2023-05-21T01:43:01.838Z,35.69
2023-05-21T01:44:01.892Z,35.66
2023-05-21T01:45:01.948Z,35.70
2023-05-21T01:46:02.025Z,35.76
2023-05-21T01:47:02.054Z,35.73
2023-05-21T01:48:02.115Z,35.70
2023-05-21T01:49:02.176Z,35.69
2023-05-21T01:50:02.215Z,35.69
2023-05-21T01:51:02.260Z,35.74
2023-05-21T01:52:02.337Z,35.71
2023-05-21T01:53:02.391Z,35.72
2023-05-21T01:54:02.454Z,35.76
2023-05-21T01:55:02.521Z,35.68
2023-05-21T01:56:02.582Z,35.69
2023-05-21T01:57:02.661Z,35.73
2023-05-21T01:58:02.807Z,35.71
2023-05-21T01:59:02.764Z,35.74
2023-05-21T02:00:02.804Z,35.74
2023-05-21T02:01:02.835Z,35.76
2023-05-21T02:02:02.926Z,35.70
2023-05-21T02:03:03.050Z,35.72
2023-05-21T02:04:03.152Z,35.76
2023-05-21T02:05:03.045Z,35.71
2023-05-21T02:06:03.091Z,35.71
2023-05-21T02:07:03.135Z,35.78
2023-05-21T02:08:03.198Z,35.71
2023-05-21T02:09:03.260Z,35.71
2023-05-21T02:10:03.316Z,35.73
2023-05-21T02:11:03.392Z,35.74
2023-05-21T02:12:03.430Z,35.73
2023-05-21T02:13:03.508Z,35.78
2023-05-21T02:14:03.565Z,35.73
2023-05-21T02:15:03.611Z,35.78
2023-05-21T02:16:03.679Z,35.77
2023-05-21T02:17:03.699Z,35.74
2023-05-21T02:18:03.801Z,35.77
2023-05-21T02:19:03.816Z,35.74
2023-05-21T02:20:03.853Z,35.74
2023-05-21T02:21:03.925Z,35.73
2023-05-21T02:22:03.976Z,35.71
2023-05-21T02:23:04.035Z,35.74
2023-05-21T02:24:04.086Z,35.76
2023-05-21T02:25:04.143Z,35.74
2023-05-21T02:26:04.203Z,35.73
2023-05-21T02:27:04.255Z,35.73
2023-05-21T02:28:04.318Z,35.77
2023-05-21T02:29:04.390Z,35.74
2023-05-21T02:30:04.445Z,35.79
2023-05-21T02:31:04.497Z,35.80
2023-05-21T02:32:04.578Z,35.82
2023-05-21T02:33:04.726Z,35.82
2023-05-21T02:34:04.729Z,35.77
2023-05-21T02:35:04.747Z,35.78
2023-05-21T02:36:04.827Z,35.78
2023-05-21T02:37:04.864Z,35.79
2023-05-21T02:38:04.918Z,35.76
2023-05-21T02:39:05.000Z,35.79
2023-05-21T02:40:05.034Z,35.78
2023-05-21T02:41:05.114Z,35.77
2023-05-21T02:42:05.154Z,35.83
2023-05-21T02:43:05.171Z,35.78
2023-05-21T02:44:05.217Z,35.77
2023-05-21T02:45:05.258Z,35.80
2023-05-21T02:46:05.342Z,35.82
2023-05-21T02:47:05.358Z,35.78
2023-05-21T02:48:05.469Z,35.81
2023-05-21T02:49:05.427Z,35.75
2023-05-21T02:50:05.450Z,35.77
2023-05-21T02:51:05.510Z,35.79
2023-05-21T02:52:05.563Z,35.79
2023-05-21T02:53:05.583Z,35.77
2023-05-21T02:54:05.626Z,35.75
2023-05-21T02:55:05.652Z,35.83
2023-05-21T02:56:05.702Z,35.77
2023-05-21T02:57:05.709Z,35.82
2023-05-21T02:58:05.731Z,35.83
2023-05-21T02:59:05.761Z,35.82
2023-05-21T03:00:05.775Z,35.82
2023-05-21T03:01:05.858Z,35.79
2023-05-21T03:02:05.849Z,35.86
2023-05-21T03:03:05.925Z,35.79
2023-05-21T03:04:05.908Z,35.80
2023-05-21T03:05:05.935Z,35.79
2023-05-21T03:06:05.961Z,35.82
2023-05-21T03:07:06.010Z,35.82
2023-05-21T03:08:06.025Z,35.83
2023-05-21T03:09:06.052Z,35.83
2023-05-21T03:10:06.075Z,35.84
2023-05-21T03:11:06.086Z,35.82
2023-05-21T03:12:06.120Z,35.79
2023-05-21T03:13:08.205Z,35.87
2023-05-21T03:14:06.117Z,35.84
2023-05-21T03:15:06.109Z,35.84
2023-05-21T03:16:06.110Z,35.86
2023-05-21T03:17:06.311Z,35.84
2023-05-21T03:18:06.131Z,35.78
2023-05-21T03:19:06.165Z,35.83
2023-05-21T03:20:06.096Z,35.83
2023-05-21T03:21:06.072Z,35.86
2023-05-21T03:22:06.088Z,35.79
2023-05-21T03:23:06.066Z,35.82
2023-05-21T03:24:06.053Z,35.86
2023-05-21T03:25:06.048Z,35.83
2023-05-21T03:26:06.047Z,35.84
2023-05-21T03:27:06.034Z,35.83
2023-05-21T03:28:06.020Z,35.88
2023-05-21T03:29:06.011Z,35.84
2023-05-21T03:30:06.832Z,35.77
2023-05-21T03:31:06.000Z,35.82
2023-05-21T03:32:06.044Z,35.87
2023-05-21T03:33:05.992Z,35.83
2023-05-21T03:34:05.977Z,35.83
2023-05-21T03:35:05.991Z,35.87
2023-05-21T03:36:05.982Z,35.86
2023-05-21T03:37:05.947Z,35.89
2023-05-21T03:38:05.945Z,35.91
2023-05-21T03:39:05.962Z,35.84
2023-05-21T03:40:05.928Z,35.85
2023-05-21T03:41:05.937Z,35.85
2023-05-21T03:42:05.930Z,35.82
2023-05-21T03:43:05.912Z,35.85
2023-05-21T03:44:05.929Z,35.91
2023-05-21T03:45:05.913Z,35.82
2023-05-21T03:46:05.941Z,35.84
2023-05-21T03:47:05.899Z,35.87
2023-05-21T03:48:05.884Z,35.87
2023-05-21T03:49:05.939Z,35.83
2023-05-21T03:50:05.873Z,35.86
2023-05-21T03:51:05.861Z,35.85
2023-05-21T03:52:05.845Z,35.85
2023-05-21T03:53:05.837Z,35.83
2023-05-21T03:54:05.885Z,35.89
2023-05-21T03:55:05.841Z,35.88
2023-05-21T03:56:05.837Z,35.89
2023-05-21T03:57:05.856Z,35.82
2023-05-21T03:58:05.903Z,35.86
2023-05-21T03:59:05.960Z,35.88
2023-05-21T04:00:05.952Z,35.87
2023-05-21T04:01:05.988Z,35.92
2023-05-21T04:02:06.057Z,35.83
2023-05-21T04:03:06.102Z,35.86
2023-05-21T04:04:06.287Z,35.88
2023-05-21T04:05:06.121Z,35.82
2023-05-21T04:06:06.195Z,35.87
2023-05-21T04:07:06.251Z,35.86
2023-05-21T04:08:06.280Z,35.84
2023-05-21T04:09:06.330Z,35.86
2023-05-21T04:10:06.408Z,35.88
2023-05-21T04:11:06.489Z,35.86
2023-05-21T04:12:06.523Z,35.84
2023-05-21T04:13:06.582Z,35.86
2023-05-21T04:14:06.655Z,35.88
2023-05-21T04:15:06.731Z,35.89
2023-05-21T04:16:06.810Z,35.88
2023-05-21T04:17:06.837Z,35.87
2023-05-21T04:18:06.957Z,35.89
2023-05-21T04:19:07.006Z,35.87
2023-05-21T04:20:07.020Z,35.84
2023-05-21T04:21:07.060Z,35.87
2023-05-21T04:22:07.100Z,35.87
2023-05-21T04:23:07.113Z,35.84
2023-05-21T04:24:07.147Z,35.84
2023-05-21T04:25:07.192Z,35.83
2023-05-21T04:26:07.213Z,35.86
2023-05-21T04:27:07.246Z,35.84
2023-05-21T04:28:07.298Z,35.84
2023-05-21T04:29:07.324Z,35.84
2023-05-21T04:30:07.379Z,35.83
2023-05-21T04:31:07.460Z,35.88
2023-05-21T04:32:07.468Z,35.80
2023-05-21T04:33:07.593Z,35.82
2023-05-21T04:34:07.566Z,35.86
2023-05-21T04:35:07.598Z,35.86
2023-05-21T04:36:07.638Z,35.83
2023-05-21T04:37:07.669Z,35.84
2023-05-21T04:38:07.769Z,35.79
2023-05-21T04:39:07.768Z,35.81
2023-05-21T04:40:07.805Z,35.81
2023-05-21T04:41:07.847Z,35.83
2023-05-21T04:42:07.888Z,35.87
2023-05-21T04:43:07.929Z,35.81
2023-05-21T04:44:07.995Z,35.78
2023-05-21T04:45:08.050Z,35.82
2023-05-21T04:46:08.211Z,35.80
2023-05-21T04:47:08.289Z,35.82
2023-05-21T04:48:08.260Z,35.80
2023-05-21T04:49:08.282Z,35.77
2023-05-21T04:50:08.334Z,35.80
2023-05-21T04:51:08.380Z,35.80
2023-05-21T04:52:08.410Z,35.72
2023-05-21T04:53:08.467Z,35.73
2023-05-21T04:54:08.481Z,35.78
2023-05-21T04:55:08.523Z,35.80
2023-05-21T04:56:08.573Z,35.75
2023-05-21T04:57:08.622Z,35.76
2023-05-21T04:58:08.692Z,35.77
2023-05-21T04:59:08.743Z,35.73
2023-05-21T05:00:08.805Z,35.73
2023-05-21T05:01:08.939Z,35.76
2023-05-21T05:02:08.927Z,35.75
2023-05-21T05:03:09.168Z,35.75
2023-05-21T05:04:09.048Z,35.75
2023-05-21T05:05:09.111Z,35.76
2023-05-21T05:06:09.188Z,35.71
2023-05-21T05:07:09.222Z,35.76
2023-05-21T05:08:09.315Z,35.71
2023-05-21T05:09:09.353Z,35.70
2023-05-21T05:10:09.408Z,35.74
2023-05-21T05:11:09.463Z,35.72
2023-05-21T05:12:09.553Z,35.71
2023-05-21T05:13:09.591Z,35.70
2023-05-21T05:14:09.651Z,35.74
2023-05-21T05:15:09.684Z,35.69
2023-05-21T05:16:09.791Z,35.71
2023-05-21T05:17:09.829Z,35.71
2023-05-21T05:18:09.867Z,35.69
2023-05-21T05:19:09.979Z,35.70
2023-05-21T05:20:10.004Z,35.70
2023-05-21T05:21:10.131Z,35.72
2023-05-21T05:22:12.350Z,35.66
2023-05-21T05:23:10.085Z,35.66
2023-05-21T05:24:10.082Z,35.67
2023-05-21T05:25:10.069Z,35.66
2023-05-21T05:26:10.071Z,35.66
2023-05-21T05:27:10.088Z,35.69
2023-05-21T05:28:10.047Z,35.70
2023-05-21T05:29:10.058Z,35.66
2023-05-21T05:30:10.050Z,35.71
2023-05-21T05:31:10.159Z,35.69
2023-05-21T05:32:10.058Z,35.69
2023-05-21T05:33:10.017Z,35.70
2023-05-21T05:34:10.010Z,35.64
2023-05-21T05:35:10.006Z,35.68
2023-05-21T05:36:10.011Z,35.68
2023-05-21T05:37:09.990Z,35.66
2023-05-21T05:38:10.006Z,35.64
2023-05-21T05:39:09.974Z,35.68
2023-05-21T05:40:09.961Z,35.68
2023-05-21T05:41:09.962Z,35.69
2023-05-21T05:42:09.962Z,35.64
2023-05-21T05:43:09.967Z,35.65
2023-05-21T05:44:11.000Z,35.70
2023-05-21T05:45:09.931Z,35.62
2023-05-21T05:46:09.962Z,35.67
2023-05-21T05:47:09.917Z,35.64
2023-05-21T05:48:09.979Z,35.65
2023-05-21T05:49:09.899Z,35.64
2023-05-21T05:50:09.924Z,35.64
2023-05-21T05:51:09.905Z,35.63
2023-05-21T05:52:09.895Z,35.64
2023-05-21T05:53:09.874Z,35.66
2023-05-21T05:54:09.875Z,35.59
2023-05-21T05:55:09.876Z,35.61
2023-05-21T05:56:09.912Z,35.62
2023-05-21T05:57:09.995Z,35.61
2023-05-21T05:58:10.027Z,35.61
2023-05-21T05:59:10.091Z,35.59
2023-05-21T06:00:10.155Z,35.60
2023-05-21T06:01:10.225Z,35.60
2023-05-21T06:02:10.325Z,35.62
2023-05-21T06:03:10.403Z,35.61
2023-05-21T06:04:10.385Z,35.60
2023-05-21T06:05:10.452Z,35.58
2023-05-21T06:06:10.542Z,35.61
2023-05-21T06:07:10.546Z,35.59
2023-05-21T06:08:10.602Z,35.61
2023-05-21T06:09:10.667Z,35.58
2023-05-21T06:10:10.724Z,35.61
2023-05-21T06:11:10.792Z,35.62
2023-05-21T06:12:14.702Z,35.54
2023-05-21T06:13:10.822Z,35.54
2023-05-21T06:14:10.816Z,35.50
2023-05-21T06:15:10.799Z,35.56
2023-05-21T06:16:10.809Z,35.55
2023-05-21T06:17:10.788Z,35.55
2023-05-21T06:18:10.818Z,35.52
2023-05-21T06:19:10.804Z,35.55
2023-05-21T06:20:10.768Z,35.56
2023-05-21T06:21:10.788Z,35.52
2023-05-21T06:22:10.758Z,35.54
2023-05-21T06:23:10.741Z,35.51
2023-05-21T06:24:10.734Z,35.48
2023-05-21T06:25:10.733Z,35.52
2023-05-21T06:26:10.726Z,35.47
2023-05-21T06:27:10.716Z,35.45
2023-05-21T06:28:10.711Z,35.48
2023-05-21T06:29:10.721Z,35.45
2023-05-21T06:30:10.708Z,35.49
2023-05-21T06:31:10.684Z,35.47
2023-05-21T06:32:10.676Z,35.51
2023-05-21T06:33:10.775Z,35.42
2023-05-21T06:34:10.754Z,35.46
2023-05-21T06:35:10.803Z,35.37
2023-05-21T06:36:10.946Z,35.46
2023-05-21T06:37:10.939Z,35.41
2023-05-21T06:38:10.996Z,35.41
2023-05-21T06:39:11.046Z,35.45
2023-05-21T06:40:11.094Z,35.40
2023-05-21T06:41:11.169Z,35.43
2023-05-21T06:42:11.230Z,35.44
2023-05-21T06:43:11.290Z,35.43
2023-05-21T06:44:11.332Z,35.44
2023-05-21T06:45:11.380Z,35.43
2023-05-21T06:46:11.551Z,35.40
2023-05-21T06:47:11.504Z,35.43
2023-05-21T06:48:11.592Z,35.40
2023-05-21T06:49:13.492Z,35.43
2023-05-21T06:50:11.748Z,35.41
2023-05-21T06:51:11.809Z,35.39
2023-05-21T06:52:11.860Z,35.43
2023-05-21T06:53:11.914Z,35.43
2023-05-21T06:54:11.969Z,35.41
2023-05-21T06:55:12.024Z,35.40
2023-05-21T06:56:12.105Z,35.39
2023-05-21T06:57:12.201Z,35.41
2023-05-21T06:58:12.193Z,35.40
2023-05-21T06:59:12.362Z,35.39
2023-05-21T07:00:12.340Z,35.38
2023-05-21T07:01:12.387Z,35.38
2023-05-21T07:02:12.440Z,35.39
2023-05-21T07:03:12.572Z,35.41
2023-05-21T07:04:12.509Z,35.41
2023-05-21T07:05:12.560Z,35.40
2023-05-21T07:06:12.651Z,35.39
2023-05-21T07:07:12.668Z,35.37
2023-05-21T07:08:12.726Z,35.38
2023-05-21T07:09:12.792Z,35.39
2023-05-21T07:10:12.873Z,35.35
2023-05-21T07:11:12.877Z,35.37
2023-05-21T07:12:13.730Z,35.32
2023-05-21T07:13:12.980Z,35.34
2023-05-21T07:14:13.033Z,35.35
2023-05-21T07:15:13.115Z,35.29
2023-05-21T07:16:13.164Z,35.32
2023-05-21T07:17:13.175Z,35.28
2023-05-21T07:18:13.279Z,35.30
2023-05-21T07:19:13.311Z,35.30
2023-05-21T07:20:13.382Z,35.29
2023-05-21T07:21:13.377Z,35.28
2023-05-21T07:22:13.424Z,35.29
2023-05-21T07:23:13.448Z,35.32
2023-05-21T07:24:13.485Z,35.28
2023-05-21T07:25:13.518Z,35.28
2023-05-21T07:26:13.608Z,35.25
2023-05-21T07:27:24.771Z,35.28
2023-05-21T07:28:14.591Z,35.24
2023-05-21T07:29:13.581Z,35.21
2023-05-21T07:30:13.564Z,35.26
2023-05-21T07:31:13.664Z,35.23
2023-05-21T07:32:13.573Z,35.22
2023-05-21T07:33:13.557Z,35.19
2023-05-21T07:34:13.539Z,35.18
2023-05-21T07:35:13.547Z,35.16
2023-05-21T07:36:13.545Z,35.17
2023-05-21T07:37:13.529Z,35.13
2023-05-21T07:38:13.509Z,35.21
2023-05-21T07:39:13.512Z,35.21
2023-05-21T07:40:13.503Z,35.22
2023-05-21T07:41:13.751Z,35.17
2023-05-21T07:42:13.533Z,35.18
2023-05-21T07:43:13.564Z,35.17
2023-05-21T07:44:13.581Z,35.15
2023-05-21T07:45:13.616Z,35.11
2023-05-21T07:46:13.677Z,35.14
2023-05-21T07:47:13.670Z,35.13
2023-05-21T07:48:13.693Z,35.14
2023-05-21T07:49:13.715Z,35.12
2023-05-21T07:50:13.739Z,35.13
2023-05-21T07:51:13.765Z,35.15
2023-05-21T07:52:13.800Z,35.14
2023-05-21T07:53:13.812Z,35.11
2023-05-21T07:54:13.836Z,35.09
2023-05-21T07:55:13.873Z,35.10
2023-05-21T07:56:13.985Z,35.09
2023-05-21T07:57:13.912Z,35.09
2023-05-21T07:58:13.970Z,35.11
2023-05-21T07:59:13.980Z,35.08
2023-05-21T08:00:13.956Z,35.06
2023-05-21T08:01:13.981Z,35.04
2023-05-21T08:02:13.983Z,35.08
2023-05-21T08:03:14.058Z,35.11
2023-05-21T08:04:14.233Z,35.12
2023-05-21T08:05:14.040Z,35.03
2023-05-21T08:06:13.994Z,35.03
2023-05-21T08:07:13.981Z,35.04
2023-05-21T08:08:13.985Z,35.05
2023-05-21T08:09:13.996Z,35.11
2023-05-21T08:10:14.023Z,35.04
2023-05-21T08:11:14.033Z,35.08
2023-05-21T08:12:14.046Z,35.02
2023-05-21T08:13:14.072Z,35.04
2023-05-21T08:14:14.100Z,35.03
2023-05-21T08:15:14.130Z,35.03
2023-05-21T08:16:14.170Z,35.02
2023-05-21T08:17:14.151Z,35.01
2023-05-21T08:18:14.171Z,35.03
2023-05-21T08:19:14.256Z,35.03
2023-05-21T08:20:14.211Z,35.05
2023-05-21T08:21:14.217Z,35.07
2023-05-21T08:22:14.244Z,35.00
2023-05-21T08:23:14.332Z,35.05
2023-05-21T08:24:14.284Z,35.01
2023-05-21T08:25:14.304Z,35.06
2023-05-21T08:26:14.322Z,35.05
2023-05-21T08:27:14.335Z,35.01
2023-05-21T08:28:14.376Z,35.05
2023-05-21T08:29:14.384Z,35.03
2023-05-21T08:30:14.397Z,35.06
2023-05-21T08:31:14.411Z,35.03
2023-05-21T08:32:14.581Z,35.01
2023-05-21T08:33:14.413Z,35.01
2023-05-21T08:34:14.414Z,35.00
2023-05-21T08:35:14.413Z,35.01
2023-05-21T08:36:14.434Z,34.99
2023-05-21T08:37:14.433Z,34.96
2023-05-21T08:38:14.454Z,34.99
2023-05-21T08:39:14.468Z,34.98
2023-05-21T08:40:14.493Z,34.92
2023-05-21T08:41:14.487Z,34.95
2023-05-21T08:42:22.585Z,34.94
2023-05-21T08:43:15.511Z,34.95
2023-05-21T08:44:14.660Z,34.90
2023-05-21T08:45:14.485Z,34.85
2023-05-21T08:46:14.535Z,34.90
2023-05-21T08:47:14.476Z,34.88
2023-05-21T08:48:14.475Z,34.89
2023-05-21T08:49:14.472Z,34.84
2023-05-21T08:50:14.476Z,34.87
2023-05-21T08:51:14.439Z,34.83
2023-05-21T08:52:14.436Z,34.85
2023-05-21T08:53:26.663Z,34.83
2023-05-21T08:54:15.416Z,34.88
2023-05-21T08:55:14.413Z,34.81
2023-05-21T08:56:14.425Z,34.83
2023-05-21T08:57:14.401Z,34.81
2023-05-21T08:58:14.420Z,34.83
2023-05-21T08:59:14.383Z,34.85
2023-05-21T09:00:14.370Z,34.80
2023-05-21T09:01:14.422Z,34.82
2023-05-21T09:02:14.426Z,34.83
2023-05-21T09:03:14.412Z,34.78
2023-05-21T09:05:15.344Z,34.77
2023-05-21T09:06:14.336Z,34.76
2023-05-21T09:07:14.329Z,34.77
2023-05-21T09:08:14.312Z,34.78
2023-05-21T09:09:14.311Z,34.79
2023-05-21T09:10:14.338Z,34.76
2023-05-21T09:11:14.303Z,34.78
2023-05-21T09:12:14.329Z,34.78
2023-05-21T09:13:14.286Z,34.77
2023-05-21T09:14:14.304Z,34.77
2023-05-21T09:15:14.279Z,34.76
2023-05-21T09:16:14.307Z,34.72
2023-05-21T09:17:14.264Z,34.72
2023-05-21T09:18:14.333Z,34.71
2023-05-21T09:19:14.270Z,34.70
2023-05-21T09:20:14.225Z,34.74
2023-05-21T09:21:14.228Z,34.74
2023-05-21T09:22:14.242Z,34.76
2023-05-21T09:23:14.237Z,34.70
2023-05-21T09:24:14.204Z,34.75
2023-05-21T09:25:14.197Z,34.70
2023-05-21T09:26:14.234Z,34.77
2023-05-21T09:27:14.241Z,34.73
2023-05-21T09:28:14.282Z,34.68
2023-05-21T09:29:14.282Z,34.67
2023-05-21T09:30:14.321Z,34.73
2023-05-21T09:31:14.412Z,34.71
2023-05-21T09:32:14.380Z,34.70
2023-05-21T09:33:14.504Z,34.74
2023-05-21T09:34:14.451Z,34.70
2023-05-21T09:35:14.482Z,34.69
2023-05-21T09:36:14.529Z,34.65
2023-05-21T09:37:26.488Z,34.70
2023-05-21T09:38:15.515Z,34.65
2023-05-21T09:39:14.516Z,34.65
2023-05-21T09:40:14.500Z,34.70
2023-05-21T09:41:14.995Z,34.64
2023-05-21T09:42:14.497Z,34.67
2023-05-21T09:43:14.490Z,34.66
2023-05-21T09:44:14.483Z,34.70
2023-05-21T09:45:14.496Z,34.64
2023-05-21T09:46:14.494Z,34.64
2023-05-21T09:47:14.455Z,34.67
2023-05-21T09:48:14.542Z,34.69
2023-05-21T09:49:14.438Z,34.64
2023-05-21T09:50:14.464Z,34.67
2023-05-21T09:51:14.447Z,34.68
2023-05-21T09:52:14.443Z,34.63
2023-05-21T09:53:14.407Z,34.63
2023-05-21T09:54:14.411Z,34.64
2023-05-21T09:55:14.415Z,34.66
2023-05-21T09:56:14.398Z,34.68
2023-05-21T09:57:14.389Z,34.63
2023-05-21T09:58:14.390Z,34.64
2023-05-21T09:59:14.368Z,34.67
2023-05-21T10:00:14.360Z,34.67
2023-05-21T10:01:14.371Z,34.67
2023-05-21T10:02:14.384Z,34.66
2023-05-21T10:03:14.360Z,34.60
2023-05-21T10:04:14.346Z,34.66
2023-05-21T10:05:14.326Z,34.63
2023-05-21T10:06:14.347Z,34.60
2023-05-21T10:07:14.315Z,34.64
2023-05-21T10:08:14.295Z,34.63
2023-05-21T10:09:14.297Z,34.62
2023-05-21T10:10:14.304Z,34.63
2023-05-21T10:11:14.295Z,34.63
2023-05-21T10:12:14.275Z,34.66
2023-05-21T10:13:14.275Z,34.64
2023-05-21T10:14:14.250Z,34.69
2023-05-21T10:15:14.248Z,34.64
2023-05-21T10:16:14.279Z,34.68
2023-05-21T10:17:14.242Z,34.64
2023-05-21T10:18:14.249Z,34.69
2023-05-21T10:19:14.281Z,34.66
2023-05-21T10:20:14.229Z,34.67
2023-05-21T10:21:14.216Z,34.62
2023-05-21T10:22:14.217Z,34.66
2023-05-21T10:23:14.293Z,34.63
2023-05-21T10:24:14.191Z,34.68
2023-05-21T10:25:14.197Z,34.67
2023-05-21T10:26:14.190Z,34.68
2023-05-21T10:27:14.185Z,34.72
2023-05-21T10:28:14.168Z,34.72
2023-05-21T10:29:14.162Z,34.69
2023-05-21T10:30:14.161Z,34.72
2023-05-21T10:31:14.184Z,34.67
2023-05-21T10:32:14.218Z,34.68
2023-05-21T10:33:14.159Z,34.69
2023-05-21T10:34:14.133Z,34.73
2023-05-21T10:35:14.135Z,34.63
2023-05-21T10:36:14.138Z,34.71
2023-05-21T10:37:14.105Z,34.62
2023-05-21T10:38:14.120Z,34.68
2023-05-21T10:39:14.099Z,34.63
2023-05-21T10:40:14.103Z,34.67
2023-05-21T10:41:14.076Z,34.67
2023-05-21T10:42:14.076Z,34.68
2023-05-21T10:43:14.076Z,34.63
2023-05-21T10:44:14.049Z,34.70
2023-05-21T10:45:14.066Z,34.69
2023-05-21T10:46:14.139Z,34.67
2023-05-21T10:47:14.050Z,34.71
2023-05-21T10:48:14.096Z,34.67
2023-05-21T10:49:14.056Z,34.68
2023-05-21T10:50:14.059Z,34.69
2023-05-21T10:51:14.075Z,34.67
2023-05-21T10:52:14.048Z,34.69
2023-05-21T10:53:14.036Z,34.72
2023-05-21T10:54:14.031Z,34.73
2023-05-21T10:55:14.040Z,34.68
2023-05-21T10:56:14.036Z,34.72
2023-05-21T10:57:14.032Z,34.69
2023-05-21T10:58:14.034Z,34.76
2023-05-21T10:59:14.033Z,34.77
2023-05-21T11:00:14.034Z,34.71
2023-05-21T11:01:14.095Z,34.75
2023-05-21T11:02:14.065Z,34.69
2023-05-21T11:03:14.156Z,34.71
2023-05-21T11:04:14.043Z,34.69
2023-05-21T11:05:14.056Z,34.72
2023-05-21T11:06:14.075Z,34.68
2023-05-21T11:07:14.073Z,34.73
2023-05-21T11:08:14.090Z,34.75
2023-05-21T11:09:14.119Z,34.76
2023-05-21T11:10:14.196Z,34.75
2023-05-21T11:11:14.130Z,34.75
2023-05-21T11:12:14.136Z,34.73
2023-05-21T11:13:14.144Z,34.73
2023-05-21T11:14:14.135Z,34.70
2023-05-21T11:15:14.167Z,34.75
2023-05-21T11:16:14.148Z,34.72
2023-05-21T11:17:14.232Z,34.75
2023-05-21T11:18:14.172Z,34.71
2023-05-21T11:19:14.217Z,34.72
2023-05-21T11:20:14.242Z,34.72
2023-05-21T11:21:14.215Z,34.72
2023-05-21T11:22:14.239Z,34.72
2023-05-21T11:23:14.260Z,34.72
2023-05-21T11:24:14.279Z,34.72
2023-05-21T11:25:14.300Z,34.70
2023-05-21T11:26:14.357Z,34.68
2023-05-21T11:27:14.340Z,34.69
2023-05-21T11:28:14.348Z,34.75
2023-05-21T11:29:14.337Z,34.69
2023-05-21T11:30:14.328Z,34.72
2023-05-21T11:31:14.363Z,34.77
2023-05-21T11:32:14.333Z,34.85
2023-05-21T11:33:14.440Z,34.93
2023-05-21T11:34:14.338Z,35.01
2023-05-21T11:35:14.339Z,35.08
2023-05-21T11:36:14.317Z,35.10
2023-05-21T11:37:14.324Z,35.17
2023-05-21T11:38:14.335Z,35.17
2023-05-21T11:39:14.331Z,35.10
2023-05-21T11:40:14.414Z,35.12
2023-05-21T11:41:14.342Z,35.20
2023-05-21T11:42:14.333Z,35.14
2023-05-21T11:43:14.362Z,35.17
2023-05-21T11:44:14.344Z,35.12
2023-05-21T11:45:14.352Z,35.13
2023-05-21T11:46:14.948Z,35.11
2023-05-21T11:47:14.351Z,35.08
2023-05-21T11:48:14.362Z,35.07
2023-05-21T11:49:14.349Z,35.04
2023-05-21T11:50:14.355Z,35.07
2023-05-21T11:51:14.360Z,35.04
2023-05-21T11:52:14.357Z,34.99
2023-05-21T11:53:14.360Z,35.02
2023-05-21T11:54:14.367Z,35.00
2023-05-21T11:55:14.358Z,34.97
2023-05-21T11:56:14.464Z,34.99
2023-05-21T11:57:14.439Z,34.99
2023-05-21T11:58:14.473Z,34.94
2023-05-21T11:59:16.024Z,34.94
2023-05-21T12:00:14.804Z,34.92
2023-05-21T12:01:14.822Z,34.94
2023-05-21T12:02:14.855Z,34.96
2023-05-21T12:03:15.050Z,34.96
2023-05-21T12:04:14.976Z,34.97
2023-05-21T12:05:14.989Z,34.95
2023-05-21T12:06:15.003Z,34.96
2023-05-21T12:07:14.966Z,35.00
2023-05-21T12:08:14.974Z,34.95
2023-05-21T12:09:14.974Z,34.93
2023-05-21T12:10:14.946Z,34.95
2023-05-21T12:11:14.937Z,34.97
2023-05-21T12:12:14.941Z,34.90
2023-05-21T12:13:14.935Z,34.91
2023-05-21T12:14:15.105Z,34.88
2023-05-21T12:15:14.933Z,34.88
2023-05-21T12:16:14.942Z,34.88
2023-05-21T12:17:14.932Z,34.91
2023-05-21T12:18:14.970Z,34.90
2023-05-21T12:19:15.019Z,34.89
2023-05-21T12:20:15.043Z,34.90
2023-05-21T12:21:15.043Z,34.92
2023-05-21T12:22:15.067Z,34.89
2023-05-21T12:23:15.097Z,34.94
2023-05-21T12:24:15.090Z,34.90
2023-05-21T12:25:15.091Z,34.90
2023-05-21T12:26:15.090Z,34.88
2023-05-21T12:27:15.073Z,34.90
2023-05-21T12:28:15.070Z,34.84
2023-05-21T12:29:15.081Z,34.88
2023-05-21T12:30:15.079Z,34.81
2023-05-21T12:31:15.110Z,34.85
2023-05-21T12:32:15.152Z,34.88
2023-05-21T12:33:15.185Z,34.84
2023-05-21T12:34:15.237Z,34.80
2023-05-21T12:35:15.311Z,34.77
2023-05-21T12:36:15.357Z,34.74
2023-05-21T12:37:15.404Z,34.75
2023-05-21T12:38:15.422Z,34.72
2023-05-21T12:39:15.455Z,34.75
2023-05-21T12:40:15.507Z,34.69
2023-05-21T12:41:15.562Z,34.68
2023-05-21T12:42:15.594Z,34.68
2023-05-21T12:43:15.658Z,34.68
2023-05-21T12:44:15.643Z,34.64
2023-05-21T12:45:15.639Z,34.60
2023-05-21T12:46:15.676Z,34.62
2023-05-21T12:47:15.661Z,34.60
2023-05-21T12:48:15.685Z,34.58
2023-05-21T12:49:15.735Z,34.60
2023-05-21T12:50:15.771Z,34.59
2023-05-21T12:51:15.825Z,34.63
2023-05-21T12:52:15.870Z,34.55
2023-05-21T12:53:15.888Z,34.57
2023-05-21T12:54:15.924Z,34.57